Greenville Spartanburg International Airport
KGSP : now visible

Airfield :











YOU CAN JOIN US ON...

 
LOGIN :

Register | Disclaimer

   EN    FR    IT 

 









Legend :    VFR   Marginal VFR   IFR   Intensive IFR   Very Intensive IFR
Visi :
Ceiling :
>= 8 km
>= 3000ft
5 to 8 km
1000 to 3000 ft
1500m to 5 km
500 to 1000 ft
800 to 1500m
200 to 500 ft
< 800m
< 200 ft
Symbols :   Thunderstorms  Fog  Heavy snow  Heavy precipitations  Wind > 20 kt






- Airport Elevation : 964 ft
- IATA code : GSP


KGSP - Greenville Spartanburg International

CURRENT METAR :
  • 220353Z 21007KT 10SM CLR 11/06 A3016 RMK AO2 SLP212 T01110056

EXPIRED METARs :
  • 220253Z 22009KT 10SM CLR 13/06 A3019 RMK AO2 SLP220 T01280056 55001
  • 220153Z 21005KT 10SM CLR 12/06 A3018 RMK AO2 SLP219 T01220056

TAF KGSP
Valid from the 22 at 00:00 until the 23 at 00:00 UTC


212327Z 2200/2224 20005KT P6SM SCT120 BKN200
FM221400 23008KT P6SM OVC150
FM221800 23010G17KT P6SM OVC120
FM222100 22009KT P6SM SCT050 OVC100



MET'MAP, your aeronautical weather chart ! - Copyright ORBIFLY December 2007 - Disclaimer

ORBIFLY MET'MAP TEAM :

Programming & Development : Alexandra Zaïnal
Concept & Development : Baudouin d'Aumeries
Co-Development & Prog : Marc-Olivier Méhu
Technical & hardware support : Manuel Goepfert

Contact : metmap@orbifly.com




SOURCES & CREDITS :

   NOAA       Earth
Advisory